KHMN/HMN METAR and TAF weather

Enter ICAO airport designator
Station Type Date Time Source
KHMN METAR 2022/01/18 05:58 UTC NOAA

KHMN 180558Z AUTO 14006KT 10SM CLR 07/M08 A3005 RMK AO2 SLP155 T00681080 10134 20063 50000 $


Station Type Date Time Source
KHMN Decoded METAR 2022/01/18 05:58 UTC NOAA

Holloman Air Force Base, NM, United States (KHMN) 32-51N 106-06W 1248M
Jan 18, 2022 - 12:58 AM EST / 2022.01.18 0558 UTC
Wind: from the SE (140 degrees) at 7 MPH (6 KT):0
Visibility: 10 mile(s):0
Sky conditions: clear
Temperature: 44.2 F (6.8 C)
Dew Point: 17.6 F (-8.0 C)
Relative Humidity: 33%
Pressure (altimeter): 30.05 in. Hg (1017 hPa)
Pressure tendency: 0.00 inches (0.0 hPa) higher than three hours ago
ob: KHMN 180558Z AUTO 14006KT 10SM CLR 07/M08 A3005 RMK AO2 SLP155 T00681080 10134 20063 50000
cycle: 6

Station Type Date Time Source
KHMN TAF 2022/01/15 00:44 UTC NOAA

TAF
AMD KHMN 150032Z 1500/1523 VRB06KT 9999 FEW100 SCT250 QNH3000INS
BECMG 1502/1503 02010G15KT 9999 FEW120 QNH3009INS
TEMPO 1503/1507 03015G25KT
BECMG 1515/1516 20009KT 9999 FEW250 QNH3026INS TX16/1521Z TNM03/1514Z LAST NO
AMDS AFT 1500 NEXT 1809

Example: see airport list